Time;durP1;ratioP1;P1;durP2;ratioP2;P2;SDS_P1;SDS_P2;PMS_P1;PMS_P2;Temp;Humidity;BMP_temperature;BMP_pressure;BME280_temperature;BME280_humidity;BME280_pressure;Samples;Min_cycle;Max_cycle;Signal;HPM_P1;HPM_P2
2021/10/18 00:02:23;;;;;;;20.75;10.43;;;8.80;64.00;;;;;;5037980;28;20045;-35
2021/10/18 00:04:48;;;;;;;16.95;10.15;;;8.80;63.90;;;;;;5038292;28;20048;-35
2021/10/18 00:07:14;;;;;;;18.55;10.32;;;8.80;63.90;;;;;;5038129;28;20129;-35
2021/10/18 00:09:39;;;;;;;23.52;10.68;;;8.80;63.80;;;;;;5037694;28;20112;-37
2021/10/18 00:12:06;;;;;;;18.23;9.63;;;8.70;63.80;;;;;;5038128;28;20433;-37
2021/10/18 00:14:31;;;;;;;18.58;9.93;;;8.70;63.90;;;;;;5038055;28;20108;-34
2021/10/18 00:16:57;;;;;;;21.77;10.48;;;8.70;63.80;;;;;;5037923;28;20112;-38
2021/10/18 00:19:23;;;;;;;21.25;10.50;;;8.70;63.90;;;;;;5038121;28;20033;-38
2021/10/18 00:21:48;;;;;;;18.50;10.63;;;8.70;63.90;;;;;;5038153;28;20326;-35
2021/10/18 00:24:14;;;;;;;21.50;9.60;;;8.70;63.90;;;;;;5037772;28;20072;-35
2021/10/18 00:26:40;;;;;;;18.52;10.48;;;8.60;63.90;;;;;;5037896;28;20139;-35
2021/10/18 00:29:06;;;;;;;21.40;10.48;;;8.60;64.20;;;;;;5037843;28;20029;-35
2021/10/18 00:31:32;;;;;;;16.20;8.77;;;8.70;64.30;;;;;;5037522;28;20112;-35
2021/10/18 00:33:57;;;;;;;14.30;8.82;;;8.70;64.00;;;;;;5037817;28;20026;-36
2021/10/18 00:36:23;;;;;;;17.30;8.10;;;8.70;63.90;;;;;;5037515;28;20029;-38
2021/10/18 00:38:49;;;;;;;17.20;9.18;;;8.70;63.80;;;;;;5038124;28;20026;-35
2021/10/18 00:41:15;;;;;;;31.00;10.32;;;8.80;63.90;;;;;;5037384;28;20030;-35
2021/10/18 00:43:44;;;;;;;21.63;9.93;;;8.90;63.80;;;;;;5037987;28;20342;-35
2021/10/18 00:46:11;;;;;;;14.00;7.55;;;8.90;63.70;;;;;;5037303;28;20037;-35
2021/10/18 00:48:36;;;;;;;18.13;9.45;;;8.90;63.60;;;;;;5037798;28;20167;-35
2021/10/18 00:51:03;;;;;;;24.25;9.38;;;9.00;63.60;;;;;;5037467;28;20096;-38
2021/10/18 00:53:29;;;;;;;16.75;8.18;;;9.00;63.60;;;;;;5037600;28;20057;-35
2021/10/18 00:55:56;;;;;;;18.30;8.63;;;9.10;63.60;;;;;;5037239;28;20021;-37
2021/10/18 00:58:26;;;;;;;15.55;8.40;;;9.10;63.30;;;;;;5037662;28;20041;-36
2021/10/18 01:00:51;;;;;;;15.47;8.43;;;9.10;62.80;;;;;;5037610;28;20022;-39
2021/10/18 01:03:19;;;;;;;13.55;7.75;;;9.10;62.50;;;;;;5037365;28;20313;-37
2021/10/18 01:05:44;;;;;;;20.67;8.18;;;9.10;62.20;;;;;;5037682;28;20026;-36
2021/10/18 01:08:11;;;;;;;14.85;7.85;;;9.10;61.60;;;;;;5037222;28;20036;-39
2021/10/18 01:10:37;;;;;;;20.30;7.43;;;9.20;61.20;;;;;;5037074;28;20030;-35
2021/10/18 01:13:04;;;;;;;12.80;6.90;;;9.20;61.10;;;;;;5037216;28;20089;-36
2021/10/18 01:15:31;;;;;;;15.68;6.95;;;9.20;60.70;;;;;;5037320;28;20480;-39
2021/10/18 01:17:56;;;;;;;13.95;7.25;;;9.20;60.60;;;;;;5037133;28;20108;-38
2021/10/18 01:20:28;;;;;;;13.95;7.75;;;9.30;60.60;;;;;;5037073;28;20457;-38
2021/10/18 01:22:54;;;;;;;14.68;7.32;;;9.30;60.30;;;;;;5036111;28;20329;-39
2021/10/18 01:25:20;;;;;;;16.80;7.88;;;9.30;60.30;;;;;;5035679;28;20025;-39
2021/10/18 01:27:46;;;;;;;16.85;7.72;;;9.30;60.00;;;;;;5036934;28;20057;-37
2021/10/18 01:30:12;;;;;;;23.40;9.07;;;9.30;60.00;;;;;;5036891;28;20030;-38
2021/10/18 01:32:37;;;;;;;16.02;7.95;;;9.30;60.20;;;;;;5036357;28;20052;-36
2021/10/18 01:35:07;;;;;;;14.02;8.05;;;9.30;60.20;;;;;;5036782;28;20314;-38
2021/10/18 01:37:32;;;;;;;17.83;8.25;;;9.30;60.40;;;;;;5036712;28;20306;-37
2021/10/18 01:39:58;;;;;;;17.10;8.45;;;9.30;60.40;;;;;;5036379;28;20033;-36
2021/10/18 01:42:24;;;;;;;17.48;8.27;;;9.30;60.60;;;;;;5035145;28;20083;-39
2021/10/18 01:44:49;;;;;;;33.80;8.95;;;9.20;60.50;;;;;;5036384;28;20033;-36
2021/10/18 01:47:15;;;;;;;17.15;8.95;;;9.20;60.60;;;;;;5036183;28;20115;-35
2021/10/18 01:49:41;;;;;;;17.75;8.32;;;9.20;60.60;;;;;;5036326;28;20088;-36
2021/10/18 01:52:06;;;;;;;17.50;8.73;;;9.10;60.60;;;;;;5036194;28;20029;-35
2021/10/18 01:54:32;;;;;;;20.90;9.70;;;9.10;60.70;;;;;;5036408;28;20065;-35
2021/10/18 01:56:58;;;;;;;19.20;9.30;;;9.10;60.80;;;;;;5036109;28;20053;-36
2021/10/18 01:59:23;;;;;;;17.25;8.70;;;9.00;61.00;;;;;;5036226;28;20461;-38
2021/10/18 02:01:49;;;;;;;18.50;9.23;;;9.00;61.20;;;;;;5036248;28;20033;-38
2021/10/18 02:04:15;;;;;;;16.77;9.05;;;9.00;61.30;;;;;;5034705;28;20025;-38
2021/10/18 02:06:40;;;;;;;16.15;8.50;;;8.90;61.30;;;;;;5036012;28;20029;-37
2021/10/18 02:09:06;;;;;;;16.73;9.50;;;8.90;61.30;;;;;;5036068;28;20489;-36
2021/10/18 02:11:32;;;;;;;25.35;10.18;;;8.90;61.40;;;;;;5035639;28;20048;-35
2021/10/18 02:13:58;;;;;;;19.27;9.73;;;8.90;61.30;;;;;;5036627;28;20104;-35
2021/10/18 02:16:23;;;;;;;20.90;8.25;;;8.90;61.50;;;;;;5035469;28;20363;-38
2021/10/18 02:18:49;;;;;;;16.98;8.50;;;8.80;61.60;;;;;;5036052;28;20028;-35
2021/10/18 02:21:15;;;;;;;13.88;8.82;;;8.80;61.70;;;;;;5035795;28;20032;-35
2021/10/18 02:23:40;;;;;;;19.55;9.70;;;8.80;61.80;;;;;;5036364;28;20040;-36
2021/10/18 02:26:06;;;;;;;21.15;9.52;;;8.80;61.90;;;;;;5035639;28;20448;-37
2021/10/18 02:28:32;;;;;;;24.63;8.65;;;8.80;62.00;;;;;;5036112;28;20034;-37
2021/10/18 02:30:58;;;;;;;24.35;9.43;;;8.70;62.00;;;;;;5035735;28;20032;-37
2021/10/18 02:33:23;;;;;;;18.40;9.23;;;8.70;62.00;;;;;;5035536;28;20037;-38
2021/10/18 02:35:49;;;;;;;16.95;8.95;;;8.70;62.00;;;;;;5035415;28;20025;-35
2021/10/18 02:38:15;;;;;;;25.52;9.90;;;8.70;62.10;;;;;;5035694;28;20033;-37
2021/10/18 02:40:40;;;;;;;18.00;9.05;;;8.70;62.10;;;;;;5035422;28;20017;-38
2021/10/18 02:43:06;;;;;;;29.85;10.05;;;8.70;62.20;;;;;;5035653;28;20040;-37
2021/10/18 02:45:32;;;;;;;14.57;9.18;;;8.70;62.20;;;;;;5034539;28;20025;-35
2021/10/18 02:47:57;;;;;;;17.27;8.30;;;8.70;62.10;;;;;;5035711;28;20036;-36
2021/10/18 02:50:23;;;;;;;21.63;9.20;;;8.70;62.10;;;;;;5035587;28;20064;-36
2021/10/18 02:52:49;;;;;;;22.98;9.93;;;8.80;62.00;;;;;;5035508;28;20087;-36
2021/10/18 02:55:14;;;;;;;19.65;9.00;;;8.80;61.90;;;;;;5035434;28;20072;-39
2021/10/18 02:57:40;;;;;;;12.45;7.18;;;8.70;61.80;;;;;;5035381;28;20129;-36
2021/10/18 03:00:06;;;;;;;30.23;10.05;;;8.70;62.00;;;;;;5034498;28;20076;-35
2021/10/18 03:02:32;;;;;;;14.82;7.80;;;8.70;61.90;;;;;;5035366;28;20076;-39
2021/10/18 03:04:58;;;;;;;19.00;8.95;;;8.70;62.00;;;;;;5035361;28;20033;-35
2021/10/18 03:07:23;;;;;;;20.73;8.98;;;8.70;61.60;;;;;;5035479;28;20083;-36
2021/10/18 03:09:49;;;;;;;23.80;9.52;;;8.70;61.50;;;;;;5035637;28;20076;-39
2021/10/18 03:12:14;;;;;;;23.45;10.20;;;8.70;61.50;;;;;;5035236;28;20449;-36
2021/10/18 03:14:40;;;;;;;25.33;9.30;;;8.70;61.60;;;;;;5035144;28;20040;-35
2021/10/18 03:17:06;;;;;;;18.05;8.82;;;8.70;61.50;;;;;;5035247;28;20025;-35
2021/10/18 03:19:31;;;;;;;35.28;10.60;;;8.70;61.50;;;;;;5035091;28;20037;-39
2021/10/18 03:21:57;;;;;;;20.27;9.73;;;8.70;61.60;;;;;;5035293;28;20025;-38
2021/10/18 03:24:23;;;;;;;26.92;9.07;;;8.70;61.70;;;;;;5035099;28;20037;-38
2021/10/18 03:26:48;;;;;;;54.60;11.23;;;8.70;61.70;;;;;;5034961;28;20022;-35
2021/10/18 03:29:14;;;;;;;29.88;10.95;;;8.70;61.70;;;;;;5035000;28;20026;-35
2021/10/18 03:31:40;;;;;;;35.10;10.35;;;8.70;61.80;;;;;;5035324;28;20109;-36
2021/10/18 03:34:06;;;;;;;30.92;11.27;;;8.70;61.80;;;;;;5034916;28;20033;-39
2021/10/18 03:36:31;;;;;;;23.20;10.85;;;8.70;61.70;;;;;;5034638;28;20349;-39
2021/10/18 03:38:57;;;;;;;21.10;10.05;;;8.80;61.90;;;;;;5035198;28;20064;-35
2021/10/18 03:41:23;;;;;;;17.25;9.32;;;8.70;61.80;;;;;;5034506;28;20022;-36
2021/10/18 03:43:48;;;;;;;23.00;9.30;;;8.80;61.90;;;;;;5035193;28;20083;-39
2021/10/18 03:46:14;;;;;;;49.08;11.95;;;8.80;61.80;;;;;;5037777;28;20033;-38
2021/10/18 03:48:40;;;;;;;27.70;11.18;;;8.80;61.80;;;;;;5039113;28;20033;-36
2021/10/18 03:51:05;;;;;;;18.75;9.90;;;8.80;61.70;;;;;;5038126;28;20026;-35
2021/10/18 03:53:31;;;;;;;20.92;11.35;;;8.80;61.70;;;;;;5038831;28;20092;-35
2021/10/18 03:55:57;;;;;;;23.63;11.63;;;8.80;61.70;;;;;;5038416;28;20128;-39
2021/10/18 03:58:22;;;;;;;26.73;11.13;;;8.80;61.70;;;;;;5038178;28;20044;-37
2021/10/18 04:00:48;;;;;;;32.30;12.80;;;8.70;61.60;;;;;;5038428;28;20017;-39
2021/10/18 04:03:14;;;;;;;31.17;14.68;;;8.80;61.80;;;;;;5038414;28;20040;-36
2021/10/18 04:05:40;;;;;;;68.15;17.75;;;8.70;61.70;;;;;;5038211;28;20438;-39
2021/10/18 04:08:05;;;;;;;36.28;15.43;;;8.70;61.80;;;;;;5038224;28;20059;-37
2021/10/18 04:10:34;;;;;;;40.65;16.13;;;8.70;61.80;;;;;;5037902;28;20036;-39
2021/10/18 04:13:01;;;;;;;33.05;15.32;;;8.70;61.80;;;;;;5038397;28;20053;-40
2021/10/18 04:15:26;;;;;;;71.72;21.48;;;8.80;61.90;;;;;;5038247;28;20039;-39
2021/10/18 04:17:52;;;;;;;48.75;19.27;;;8.70;61.90;;;;;;5038242;28;20030;-38
2021/10/18 04:20:18;;;;;;;56.92;19.48;;;8.70;61.90;;;;;;5037883;28;20021;-39
2021/10/18 04:22:46;;;;;;;64.03;21.38;;;8.70;61.90;;;;;;5037775;28;20048;-36
2021/10/18 04:25:15;;;;;;;48.35;20.50;;;8.70;61.90;;;;;;5037984;28;20048;-38
2021/10/18 04:27:42;;;;;;;121.68;23.58;;;8.70;61.80;;;;;;5037973;28;20033;-38
2021/10/18 04:30:08;;;;;;;35.50;15.25;;;8.70;62.00;;;;;;5037702;28;20428;-35
2021/10/18 04:32:34;;;;;;;48.30;16.13;;;8.70;62.00;;;;;;5037781;28;20524;-39
2021/10/18 04:34:59;;;;;;;38.28;13.55;;;8.70;62.10;;;;;;5037564;28;20037;-39
2021/10/18 04:37:25;;;;;;;39.63;13.32;;;8.70;62.10;;;;;;5037732;28;20052;-36
2021/10/18 04:39:51;;;;;;;52.35;13.25;;;8.70;62.00;;;;;;5037661;28;20030;-39
2021/10/18 04:42:16;;;;;;;39.10;11.98;;;8.70;61.90;;;;;;5037493;28;20036;-36
2021/10/18 04:44:42;;;;;;;31.95;11.40;;;8.80;61.90;;;;;;5037337;28;20041;-36
2021/10/18 04:47:08;;;;;;;28.33;11.57;;;8.70;61.70;;;;;;5037537;28;20313;-38
2021/10/18 04:49:33;;;;;;;23.27;10.48;;;8.80;61.60;;;;;;5037295;28;20443;-37
2021/10/18 04:51:59;;;;;;;36.35;13.73;;;8.80;61.40;;;;;;5037383;28;20116;-36
2021/10/18 04:54:24;;;;;;;35.08;11.82;;;8.80;61.50;;;;;;5037172;28;20157;-36
2021/10/18 04:56:50;;;;;;;26.73;10.93;;;8.80;61.50;;;;;;5036733;28;20054;-38
2021/10/18 04:59:16;;;;;;;57.90;14.45;;;8.80;61.50;;;;;;5037428;28;20029;-36
2021/10/18 05:01:41;;;;;;;27.85;12.10;;;8.80;61.60;;;;;;5037283;28;20099;-37
2021/10/18 05:04:07;;;;;;;51.63;13.88;;;8.80;61.60;;;;;;5037257;28;20064;-35
2021/10/18 05:06:32;;;;;;;24.98;10.70;;;8.80;61.50;;;;;;5036521;28;20025;-35
2021/10/18 05:08:58;;;;;;;34.53;11.25;;;8.80;61.40;;;;;;5039486;28;20029;-35
2021/10/18 05:11:24;;;;;;;26.77;9.73;;;8.80;61.50;;;;;;5045249;28;20040;-38
2021/10/18 05:13:49;;;;;;;42.65;12.95;;;8.80;61.30;;;;;;5036747;28;20029;-39
2021/10/18 05:16:15;;;;;;;25.60;9.88;;;8.80;61.40;;;;;;5036323;28;20036;-35
2021/10/18 05:18:41;;;;;;;25.98;11.20;;;8.90;61.40;;;;;;5037328;28;20033;-39
2021/10/18 05:21:07;;;;;;;35.38;12.18;;;8.90;61.30;;;;;;5036732;28;20026;-38
2021/10/18 05:23:33;;;;;;;27.60;11.88;;;8.90;61.20;;;;;;5036449;28;20048;-39
2021/10/18 05:26:03;;;;;;;28.75;11.40;;;8.90;61.20;;;;;;5036499;28;20033;-35
2021/10/18 05:28:28;;;;;;;31.63;12.68;;;9.00;61.10;;;;;;5036739;28;20042;-36
2021/10/18 05:30:54;;;;;;;21.77;11.23;;;9.00;61.00;;;;;;5036524;28;20095;-35
2021/10/18 05:33:20;;;;;;;43.50;11.60;;;9.00;61.10;;;;;;5035993;28;20042;-36
2021/10/18 05:35:46;;;;;;;25.45;10.00;;;9.00;61.10;;;;;;5036423;28;20028;-40
2021/10/18 05:38:19;;;;;;;25.35;10.63;;;9.00;61.10;;;;;;5036558;28;20030;-35
2021/10/18 05:40:46;;;;;;;36.17;11.00;;;9.10;60.90;;;;;;5036375;28;20478;-35
2021/10/18 05:43:12;;;;;;;35.17;11.63;;;9.10;61.00;;;;;;5036426;28;20394;-36
2021/10/18 05:45:38;;;;;;;42.13;10.80;;;9.10;60.90;;;;;;5036087;28;20032;-35
2021/10/18 05:48:04;;;;;;;35.97;10.43;;;9.20;60.80;;;;;;5036408;28;20037;-38
2021/10/18 05:50:43;;;;;;;63.95;14.35;;;9.20;60.60;;;;;;5036309;28;20033;-39
2021/10/18 05:53:10;;;;;;;46.45;11.95;;;9.20;60.60;;;;;;5035214;28;20124;-38
2021/10/18 05:55:35;;;;;;;71.25;12.88;;;9.20;60.50;;;;;;5035859;28;20053;-36
2021/10/18 05:58:04;;;;;;;58.15;12.13;;;9.20;60.40;;;;;;5036225;28;20422;-39
2021/10/18 06:00:37;;;;;;;48.47;11.35;;;9.30;60.60;;;;;;5035758;28;20071;-35
2021/10/18 06:03:03;;;;;;;46.30;13.07;;;9.30;60.70;;;;;;5036004;28;20033;-35
2021/10/18 06:05:30;;;;;;;45.75;11.48;;;9.30;60.60;;;;;;5035888;28;20033;-35
2021/10/18 06:08:06;;;;;;;36.55;10.80;;;9.30;60.40;;;;;;5035387;28;20326;-38
2021/10/18 06:10:32;;;;;;;46.72;10.82;;;9.40;60.20;;;;;;5046696;28;20025;-38
2021/10/18 06:12:58;;;;;;;33.42;10.98;;;9.50;60.10;;;;;;5055919;28;20406;-37
2021/10/18 06:15:24;;;;;;;21.95;10.15;;;9.50;60.10;;;;;;5055810;28;20090;-35
2021/10/18 06:17:49;;;;;;;21.55;9.43;;;9.50;59.90;;;;;;5055862;28;20029;-36
2021/10/18 06:20:16;;;;;;;20.02;10.05;;;9.60;59.80;;;;;;5055520;28;20313;-35
2021/10/18 06:22:42;;;;;;;37.17;10.50;;;9.60;59.60;;;;;;5055579;28;20025;-35
2021/10/18 06:25:08;;;;;;;48.05;11.40;;;9.60;59.60;;;;;;5055511;28;20036;-38
2021/10/18 06:27:34;;;;;;;27.15;10.50;;;9.70;59.50;;;;;;5055591;28;20116;-39
2021/10/18 06:29:59;;;;;;;34.67;11.52;;;9.70;59.60;;;;;;5055391;28;20129;-38
2021/10/18 06:32:25;;;;;;;21.33;8.35;;;9.80;59.60;;;;;;5055499;28;20041;-37
2021/10/18 06:34:51;;;;;;;40.47;10.88;;;9.90;59.30;;;;;;5055478;28;20040;-39
2021/10/18 06:37:17;;;;;;;36.13;12.15;;;9.90;59.00;;;;;;5055557;28;20021;-35
2021/10/18 06:39:43;;;;;;;35.70;9.85;;;10.00;58.80;;;;;;5055311;28;20039;-36
2021/10/18 06:42:08;;;;;;;34.60;9.73;;;10.10;58.60;;;;;;5053778;28;20402;-39
2021/10/18 06:44:34;;;;;;;50.38;10.27;;;10.10;58.50;;;;;;5055003;28;20033;-36
2021/10/18 06:47:01;;;;;;;25.20;8.50;;;10.20;58.30;;;;;;5055045;28;20405;-35
2021/10/18 06:49:26;;;;;;;28.17;7.63;;;10.20;58.00;;;;;;5055074;28;20036;-38
2021/10/18 06:51:55;;;;;;;19.48;8.35;;;10.30;58.20;;;;;;5053842;28;20103;-39
2021/10/18 06:54:21;;;;;;;42.75;9.43;;;10.30;58.00;;;;;;5054772;28;20321;-38
2021/10/18 06:56:47;;;;;;;26.98;8.75;;;10.30;58.00;;;;;;5054118;28;20060;-39
2021/10/18 06:59:15;;;;;;;33.42;9.07;;;10.40;58.00;;;;;;5055231;28;20036;-35
2021/10/18 07:01:41;;;;;;;20.65;8.80;;;10.40;58.00;;;;;;5054944;28;20019;-37
2021/10/18 07:04:07;;;;;;;62.85;10.90;;;10.40;57.80;;;;;;5054915;28;20025;-37
2021/10/18 07:06:34;;;;;;;54.22;10.98;;;10.40;57.90;;;;;;5054856;28;20111;-37
2021/10/18 07:08:59;;;;;;;30.10;9.85;;;10.40;58.00;;;;;;5055379;28;20029;-36
2021/10/18 07:11:26;;;;;;;24.90;8.82;;;10.50;58.10;;;;;;5054477;28;20029;-35
2021/10/18 07:13:55;;;;;;;52.97;12.38;;;10.50;57.90;;;;;;5055585;28;20060;-36
2021/10/18 07:16:21;;;;;;;37.72;9.45;;;10.60;58.00;;;;;;5054599;28;20108;-36
2021/10/18 07:18:46;;;;;;;22.58;7.47;;;10.60;57.80;;;;;;5055561;28;20029;-36
2021/10/18 07:21:13;;;;;;;11.95;6.93;;;10.60;57.30;;;;;;5058012;28;20033;-38
2021/10/18 07:23:38;;;;;;;16.58;6.95;;;10.60;57.10;;;;;;5059214;28;20036;-35
2021/10/18 07:26:05;;;;;;;17.10;7.22;;;10.70;56.90;;;;;;5058645;28;20429;-38
2021/10/18 07:28:31;;;;;;;31.23;9.02;;;10.70;56.70;;;;;;5059283;28;20029;-35
2021/10/18 07:30:59;;;;;;;52.00;11.85;;;10.80;56.80;;;;;;5058946;28;20029;-39
2021/10/18 07:33:25;;;;;;;15.05;7.32;;;10.80;57.10;;;;;;5058848;28;20467;-39
2021/10/18 07:35:51;;;;;;;25.10;8.50;;;10.90;56.70;;;;;;5058664;28;20036;-39
2021/10/18 07:38:19;;;;;;;13.80;7.00;;;11.00;56.30;;;;;;5058796;28;20035;-35
2021/10/18 07:40:45;;;;;;;10.75;6.38;;;11.00;56.10;;;;;;5058392;28;20029;-36
2021/10/18 07:43:10;;;;;;;19.35;6.53;;;11.10;55.70;;;;;;5058636;28;20146;-39
2021/10/18 07:45:37;;;;;;;32.85;8.32;;;11.20;55.60;;;;;;5059029;28;20044;-37
2021/10/18 07:48:03;;;;;;;24.83;7.70;;;11.20;55.70;;;;;;5058504;28;20071;-38
2021/10/18 07:50:28;;;;;;;15.93;6.80;;;11.30;55.60;;;;;;5058261;28;20044;-40
2021/10/18 07:52:54;;;;;;;22.40;7.43;;;11.30;55.40;;;;;;5058233;28;20025;-38
2021/10/18 07:55:20;;;;;;;15.65;6.50;;;11.40;55.60;;;;;;5058363;28;20029;-35
2021/10/18 07:57:50;;;;;;;26.80;7.13;;;11.50;55.10;;;;;;5058299;28;20156;-39
2021/10/18 08:00:18;;;;;;;11.52;6.03;;;11.60;55.00;;;;;;5058003;28;20072;-34
2021/10/18 08:02:44;;;;;;;13.55;6.47;;;11.60;54.60;;;;;;5057776;28;20032;-39
2021/10/18 08:05:16;;;;;;;15.02;5.88;;;11.70;54.30;;;;;;5057835;28;20029;-34
2021/10/18 08:07:46;;;;;;;24.20;8.55;;;11.80;54.10;;;;;;5058105;28;20082;-35
2021/10/18 08:10:14;;;;;;;;;;;11.80;54.40;;;;;;5058161;28;20057;-35
2021/10/18 08:12:40;;;;;;;12.68;6.00;;;11.90;54.50;;;;;;5057828;28;20004;-38
2021/10/18 08:15:06;;;;;;;21.30;7.07;;;11.90;54.10;;;;;;5057598;28;20116;-39
2021/10/18 08:17:31;;;;;;;21.90;7.40;;;12.00;54.20;;;;;;5058089;28;20029;-37
2021/10/18 08:19:57;;;;;;;24.02;7.03;;;12.10;54.20;;;;;;5057995;28;20377;-35
2021/10/18 08:22:23;;;;;;;12.50;6.00;;;12.10;54.00;;;;;;5057549;28;20029;-35
2021/10/18 08:24:49;;;;;;;11.63;6.47;;;12.20;53.60;;;;;;5057485;28;20035;-37
2021/10/18 08:27:14;;;;;;;20.27;7.18;;;12.20;53.20;;;;;;5057869;28;20025;-34
2021/10/18 08:29:40;;;;;;;41.25;9.82;;;12.30;53.20;;;;;;5057717;28;20360;-35
2021/10/18 08:32:06;;;;;;;14.63;6.65;;;12.40;53.20;;;;;;5057289;28;20052;-35
2021/10/18 08:34:31;;;;;;;18.63;6.65;;;12.40;53.10;;;;;;5057279;28;20037;-36
2021/10/18 08:36:57;;;;;;;15.35;6.38;;;12.50;53.00;;;;;;5057470;28;20025;-37
2021/10/18 08:42:14;;;;;;;28.02;7.97;;;12.60;53.00;;;;;;5057198;28;20019;-36
2021/10/18 08:44:39;;;;;;;;;;;12.60;53.00;;;;;;5058010;28;20447;-36
2021/10/18 08:47:05;;;;;;;12.57;7.28;;;12.70;53.00;;;;;;5057167;28;19904;-36
2021/10/18 08:49:31;;;;;;;19.08;7.55;;;12.70;53.00;;;;;;5057364;28;20044;-39
2021/10/18 08:51:57;;;;;;;14.93;6.20;;;12.70;52.90;;;;;;5057238;28;20032;-35
2021/10/18 08:54:23;;;;;;;17.33;6.88;;;12.80;53.00;;;;;;5057007;28;20033;-38
2021/10/18 08:56:49;;;;;;;15.48;6.20;;;12.80;52.80;;;;;;5056922;28;20052;-36
2021/10/18 08:59:16;;;;;;;15.85;7.13;;;12.90;52.60;;;;;;5057431;28;20388;-36
2021/10/18 09:02:02;;;;;;;18.73;7.07;;;13.00;52.40;;;;;;5057081;28;20077;-39
2021/10/18 09:04:30;;;;;;;15.18;6.75;;;13.10;52.00;;;;;;5056534;28;20353;-36
2021/10/18 09:06:59;;;;;;;61.05;10.20;;;13.10;51.90;;;;;;5057234;28;20047;-39
2021/10/18 09:09:27;;;;;;;16.17;7.30;;;13.20;51.90;;;;;;5056979;28;20120;-40
2021/10/18 09:11:59;;;;;;;14.23;6.45;;;13.30;51.90;;;;;;5057000;28;20107;-36
2021/10/18 09:14:25;;;;;;;17.92;6.53;;;13.30;51.70;;;;;;5056542;28;20041;-40
2021/10/18 09:16:52;;;;;;;18.05;6.47;;;13.30;51.70;;;;;;5056687;28;20032;-35
2021/10/18 09:19:25;;;;;;;18.45;6.90;;;13.40;52.20;;;;;;5056810;28;20357;-39
2021/10/18 09:21:56;;;;;;;23.50;7.28;;;13.40;51.80;;;;;;5056100;28;20037;-39
2021/10/18 09:24:33;;;;;;;20.45;7.13;;;13.40;51.60;;;;;;5056129;28;20152;-39
2021/10/18 09:27:18;;;;;;;29.30;8.95;;;13.50;51.60;;;;;;5056287;28;20069;-35
2021/10/18 09:29:52;;;;;;;17.92;7.28;;;13.50;51.60;;;;;;5056400;28;20060;-36
2021/10/18 09:32:29;;;;;;;26.02;7.40;;;13.50;51.50;;;;;;5056316;28;20431;-39
2021/10/18 09:35:17;;;;;;;11.77;6.68;;;13.60;51.90;;;;;;5056166;28;20033;-41
2021/10/18 09:37:45;;;;;;;14.93;6.22;;;13.60;51.70;;;;;;5055870;28;20041;-40
2021/10/18 09:40:33;;;;;;;17.42;7.45;;;13.60;51.90;;;;;;5055802;28;20119;-39
2021/10/18 09:46:14;;;;;;;27.02;7.90;;;13.60;51.70;;;;;;5062734;28;20037;-36
2021/10/18 10:51:16;;;;;;;18.00;7.80;;;12.90;54.30;;;;;;5035091;28;20076;-39
2021/10/18 10:56:22;;;;;;;24.35;9.43;;;12.80;54.50;;;;;;5035120;28;20089;-36
2021/10/18 11:01:52;;;;;;;27.67;8.20;;;12.80;54.60;;;;;;5035402;28;20022;-38
2021/10/18 11:04:30;;;;;;;21.40;7.10;;;12.80;54.30;;;;;;5034825;28;20162;-39
2021/10/18 11:07:12;;;;;;;16.17;7.10;;;12.80;54.30;;;;;;5034784;28;20037;-38
2021/10/18 11:09:48;;;;;;;38.78;8.00;;;12.70;54.20;;;;;;5035180;28;20037;-35
2021/10/18 11:12:17;;;;;;;18.00;7.18;;;12.70;54.60;;;;;;5035059;28;20021;-35
2021/10/18 11:15:04;;;;;;;21.05;8.43;;;12.70;54.60;;;;;;5034846;28;20036;-38
2021/10/18 11:17:33;;;;;;;20.45;7.93;;;12.70;54.80;;;;;;5035189;28;20097;-35
2021/10/18 11:20:01;;;;;;;48.10;12.30;;;12.70;54.70;;;;;;5034849;28;20029;-38
2021/10/18 11:22:36;;;;;;;23.95;8.27;;;12.70;54.90;;;;;;5034891;28;20036;-37
2021/10/18 11:25:14;;;;;;;19.48;8.32;;;12.80;54.70;;;;;;5034970;28;20036;-39
2021/10/18 11:27:42;;;;;;;16.02;7.80;;;12.80;54.90;;;;;;5035051;28;20034;-39
2021/10/18 11:30:18;;;;;;;17.13;8.00;;;12.80;54.90;;;;;;5034661;28;20083;-40
2021/10/18 11:33:03;;;;;;;14.65;7.28;;;12.90;55.00;;;;;;5034136;28;20033;-39
2021/10/18 11:35:32;;;;;;;16.77;8.05;;;12.90;54.70;;;;;;5034718;28;20037;-38
2021/10/18 11:38:07;;;;;;;28.52;8.30;;;13.00;54.80;;;;;;5034890;28;20026;-39
2021/10/18 11:40:35;;;;;;;14.77;7.25;;;13.00;54.70;;;;;;5034630;28;20040;-39
2021/10/18 11:43:07;;;;;;;15.68;7.65;;;13.00;54.20;;;;;;5034446;28;20480;-36
2021/10/18 11:45:36;;;;;;;17.05;8.57;;;13.10;54.10;;;;;;5034926;28;20037;-35
2021/10/18 11:48:12;;;;;;;16.10;7.00;;;13.10;54.00;;;;;;5034779;28;20373;-39
2021/10/18 11:50:39;;;;;;;45.90;18.85;;;13.20;53.90;;;;;;5034602;28;20119;-36
2021/10/18 11:53:16;;;;;;;19.10;8.02;;;13.20;53.80;;;;;;5034961;28;20038;-36
2021/10/18 11:55:48;;;;;;;18.33;8.15;;;13.20;53.80;;;;;;5034431;28;20041;-36
2021/10/18 11:58:17;;;;;;;32.30;8.60;;;13.30;53.60;;;;;;5034746;28;20026;-35
2021/10/18 12:00:43;;;;;;;19.08;8.02;;;13.30;53.70;;;;;;5034746;28;20433;-35
2021/10/18 12:03:14;;;;;;;11.00;7.30;;;13.30;53.60;;;;;;5034585;28;20100;-37
2021/10/18 12:05:40;;;;;;;11.65;6.68;;;13.30;53.60;;;;;;5035056;28;20033;-39
2021/10/18 12:08:07;;;;;;;22.65;8.57;;;13.30;53.60;;;;;;5037679;28;20026;-39
2021/10/18 12:10:35;;;;;;;14.02;7.07;;;13.30;53.50;;;;;;5038270;28;20068;-39
2021/10/18 12:13:06;;;;;;;16.85;7.53;;;13.30;53.40;;;;;;5037860;28;20022;-40
2021/10/18 12:15:54;;;;;;;22.48;8.68;;;13.30;53.30;;;;;;5037893;28;20022;-36
2021/10/18 12:18:25;;;;;;;17.80;9.02;;;13.40;53.20;;;;;;5038010;28;20025;-38
2021/10/18 12:20:55;;;;;;;19.35;9.68;;;13.40;52.80;;;;;;5038005;28;20061;-36
2021/10/18 12:23:26;;;;;;;22.50;11.50;;;13.40;52.80;;;;;;5037939;28;20029;-35
2021/10/18 12:26:11;;;;;;;22.85;9.50;;;13.30;52.60;;;;;;5037845;28;20032;-38
2021/10/18 12:28:41;;;;;;;24.80;11.05;;;13.30;52.60;;;;;;5038316;28;20029;-36
2021/10/18 12:31:24;;;;;;;24.47;10.77;;;13.30;53.00;;;;;;5037664;28;20547;-45
2021/10/18 12:34:14;;;;;;;22.70;12.35;;;13.30;52.70;;;;;;5037916;28;20298;-41
2021/10/18 12:36:48;;;;;;;23.63;13.02;;;13.30;52.90;;;;;;5037866;28;20367;-39
2021/10/18 12:39:14;;;;;;;41.33;15.07;;;13.30;52.80;;;;;;5037485;28;20025;-39
2021/10/18 12:41:43;;;;;;;32.55;12.77;;;13.30;53.10;;;;;;5037055;28;20097;-36
2021/10/18 12:44:12;;;;;;;26.60;11.73;;;13.30;53.20;;;;;;5037429;28;20025;-36
2021/10/18 12:46:40;;;;;;;32.65;12.45;;;13.30;53.20;;;;;;5037088;28;20430;-35
2021/10/18 12:49:07;;;;;;;28.02;15.57;;;13.30;52.90;;;;;;5037447;28;20064;-37
2021/10/18 12:51:41;;;;;;;29.08;12.38;;;13.30;52.90;;;;;;5037447;28;20189;-37
2021/10/18 12:54:28;;;;;;;24.85;11.07;;;13.30;53.00;;;;;;5037169;28;20091;-36
2021/10/18 12:57:01;;;;;;;27.00;11.63;;;13.20;53.30;;;;;;5036956;28;20099;-39
2021/10/18 12:59:26;;;;;;;24.10;10.68;;;13.20;53.20;;;;;;5035850;28;20073;-40
2021/10/18 13:02:24;;;;;;;33.72;13.68;;;13.20;53.20;;;;;;5037267;28;20021;-39
2021/10/18 13:05:07;;;;;;;32.33;12.82;;;13.20;53.40;;;;;;5037032;28;20044;-39
2021/10/18 13:07:34;;;;;;;22.65;10.70;;;13.20;53.60;;;;;;5037122;28;20068;-36
2021/10/18 13:10:00;;;;;;;25.35;11.38;;;13.10;53.70;;;;;;5037007;28;20107;-38
2021/10/18 13:12:26;;;;;;;28.20;11.98;;;13.20;53.80;;;;;;5036690;28;20029;-36
2021/10/18 13:14:54;;;;;;;23.42;12.32;;;13.20;53.90;;;;;;5047793;28;20115;-34
2021/10/18 13:17:23;;;;;;;37.67;12.48;;;13.20;54.60;;;;;;5051916;28;20055;-35
2021/10/18 13:19:50;;;;;;;26.10;12.50;;;13.20;53.80;;;;;;5042781;28;20057;-34
2021/10/18 13:22:15;;;;;;;35.00;13.23;;;13.20;53.90;;;;;;5036581;28;20322;-34
2021/10/18 13:24:41;;;;;;;21.23;10.15;;;13.20;54.10;;;;;;5036410;28;20042;-39
2021/10/18 13:27:07;;;;;;;27.42;11.30;;;13.20;53.80;;;;;;5036666;28;20036;-38
2021/10/18 13:29:33;;;;;;;16.77;10.05;;;13.30;53.60;;;;;;5036447;28;20098;-38
2021/10/18 13:32:01;;;;;;;19.02;10.55;;;13.30;53.50;;;;;;5036469;28;20096;-35
2021/10/18 13:34:28;;;;;;;16.77;9.68;;;13.20;53.20;;;;;;5036192;28;20045;-35
2021/10/18 13:36:54;;;;;;;38.33;11.38;;;13.20;53.10;;;;;;5036290;28;20038;-40
2021/10/18 13:39:20;;;;;;;37.70;12.98;;;13.20;53.20;;;;;;5036283;28;20040;-38
2021/10/18 13:41:45;;;;;;;29.25;12.45;;;13.20;53.40;;;;;;5035974;28;20033;-39
2021/10/18 13:44:11;;;;;;;20.55;10.80;;;13.10;53.40;;;;;;5041539;28;20123;-39
2021/10/18 13:46:37;;;;;;;47.20;12.10;;;13.20;53.60;;;;;;5055863;28;20115;-39
2021/10/18 13:49:04;;;;;;;19.55;9.75;;;13.10;53.70;;;;;;5056179;28;20392;-39
2021/10/18 13:51:30;;;;;;;31.77;11.00;;;13.10;54.10;;;;;;5055901;28;20033;-35
2021/10/18 13:53:56;;;;;;;28.50;10.85;;;13.10;53.60;;;;;;5056018;28;20040;-39
2021/10/18 13:56:21;;;;;;;21.65;10.15;;;13.10;53.50;;;;;;5053835;28;20041;-36